Time;durP1;ratioP1;P1;durP2;ratioP2;P2;SDS_P1;SDS_P2;PMS_P1;PMS_P2;Temp;Humidity;BMP_temperature;BMP_pressure;BME280_temperature;BME280_humidity;BME280_pressure;Samples;Min_cycle;Max_cycle;Signal;HPM_P1;HPM_P2
2021/04/20 00:00:13;;;;;;;14.55;11.08;;;;;;;15.28;45.08;100226.11;1776407;80;21126;-77
2021/04/20 00:02:40;;;;;;;13.85;10.98;;;;;;;15.27;45.09;100218.22;1775964;80;21557;-76
2021/04/20 00:05:13;;;;;;;15.43;10.58;;;;;;;15.21;45.15;100218.46;1776443;80;21208;-76
2021/04/20 00:07:40;;;;;;;14.58;10.98;;;;;;;15.18;45.19;100218.35;1776241;80;21105;-75
2021/04/20 00:10:10;;;;;;;;;;;;;;;15.15;45.19;100212.50;1750904;80;21185;-77
2021/04/20 00:12:37;;;;;;;13.62;10.60;;;;;;;15.11;45.23;100212.05;1776280;80;20207;-77
2021/04/20 00:15:08;;;;;;;;;;;;;;;15.07;45.31;100204.53;1778887;80;21138;-77
2021/04/20 00:17:35;;;;;;;13.68;10.08;;;;;;;15.04;45.39;100207.13;1776432;80;20222;-76
2021/04/20 00:20:08;;;;;;;13.22;9.28;;;;;;;15.01;45.47;100200.76;1776361;80;21165;-76
2021/04/20 00:22:36;;;;;;;13.38;9.55;;;;;;;14.99;45.57;100193.39;1784860;80;21105;-76
2021/04/20 00:25:04;;;;;;;14.07;9.58;;;;;;;15.02;45.57;100191.62;1767917;80;21185;-77
2021/04/20 00:27:31;;;;;;;13.15;9.75;;;;;;;15.02;45.67;100188.94;1785068;80;21070;-76
2021/04/20 00:30:00;;;;;;;15.00;10.53;;;;;;;14.99;45.83;100182.60;1768081;81;21518;-76
2021/04/20 00:32:27;;;;;;;14.15;10.78;;;;;;;15.01;45.84;100184.58;1777817;80;21114;-75
2021/04/20 00:34:54;;;;;;;15.50;11.05;;;;;;;15.02;45.85;100179.49;1777657;80;21604;-76
2021/04/20 00:37:21;;;;;;;15.05;10.72;;;;;;;15.03;45.88;100181.16;1776594;80;21525;-77
2021/04/20 00:39:48;;;;;;;15.53;11.55;;;;;;;15.03;45.89;100181.16;1736447;80;21525;-76
2021/04/20 00:42:16;;;;;;;13.45;11.20;;;;;;;15.00;45.99;100178.87;1776617;80;21134;-76
2021/04/20 00:44:44;;;;;;;15.30;11.33;;;;;;;14.97;46.14;100175.20;1776421;80;21184;-76
2021/04/20 00:47:11;;;;;;;;;;;;;;;14.97;46.24;100176.55;1779167;80;21122;-76
2021/04/20 00:49:38;;;;;;;13.83;10.15;;;;;;;15.05;46.12;100172.37;1776659;80;20217;-76
2021/04/20 00:52:06;;;;;;;16.35;11.30;;;;;;;15.03;46.18;100170.36;1776332;80;21134;-76
2021/04/20 00:54:33;;;;;;;14.33;11.80;;;;;;;15.02;46.24;100167.88;1776464;80;21161;-75
2021/04/20 00:57:00;;;;;;;;;;;;;;;14.99;46.38;100165.06;1779245;80;21070;-77
2021/04/20 00:59:27;;;;;;;12.35;9.45;;;;;;;14.96;46.47;100157.36;1776302;80;20218;-76
2021/04/20 01:01:54;;;;;;;14.78;9.95;;;;;;;14.94;46.54;100154.00;1776512;80;21125;-76
2021/04/20 01:04:21;;;;;;;13.40;10.30;;;;;;;14.92;46.61;100154.72;1748414;80;21620;-76
2021/04/20 01:06:50;;;;;;;15.32;11.85;;;;;;;14.91;46.68;100143.62;1776443;80;21074;-76
2021/04/20 01:09:17;;;;;;;;;;;;;;;14.90;46.70;100144.66;1779127;80;21158;-77
2021/04/20 01:11:46;;;;;;;14.40;11.33;;;;;;;14.84;46.75;100138.67;1776694;80;20474;-78
2021/04/20 01:14:13;;;;;;;13.58;11.30;;;;;;;14.80;46.81;100133.34;1776457;80;21427;-77
2021/04/20 01:16:40;;;;;;;13.13;11.38;;;;;;;14.74;46.89;100131.42;1776535;80;21086;-77
2021/04/20 01:19:08;;;;;;;13.22;11.22;;;;;;;14.69;46.91;100131.48;1776531;80;21598;-77
2021/04/20 01:21:38;;;;;;;13.25;10.48;;;;;;;14.67;46.98;100129.52;1776539;80;21577;-77
2021/04/20 01:24:14;;;;;;;15.48;11.70;;;;;;;14.65;47.02;100122.11;1748600;80;21561;-76
2021/04/20 01:26:45;;;;;;;16.73;11.95;;;;;;;14.63;47.06;100126.88;1776568;80;21146;-75
2021/04/20 01:29:13;;;;;;;12.88;10.82;;;;;;;14.61;47.11;100118.66;1776485;80;21110;-78
2021/04/20 01:31:44;;;;;;;14.75;10.48;;;;;;;14.59;47.19;100124.25;1776488;80;21071;-78
2021/04/20 01:34:12;;;;;;;15.00;12.40;;;;;;;14.63;47.23;100107.19;1776443;80;21074;-76
2021/04/20 01:36:40;;;;;;;15.10;11.95;;;;;;;14.66;47.27;100108.95;1776502;80;21082;-76
2021/04/20 01:39:09;;;;;;;16.05;12.25;;;;;;;14.69;47.25;100113.14;1776533;80;21188;-76
2021/04/20 01:41:37;;;;;;;19.02;12.53;;;;;;;14.70;47.18;100107.54;1776363;80;21585;-75
2021/04/20 01:44:05;;;;;;;18.00;12.07;;;;;;;14.73;47.17;100105.50;1776460;80;21142;-76
2021/04/20 01:46:32;;;;;;;20.95;12.53;;;;;;;14.74;47.17;100101.77;1776351;80;21070;-75
2021/04/20 01:48:59;;;;;;;16.48;12.68;;;;;;;14.76;47.18;100099.70;1776496;80;21506;-75
2021/04/20 01:51:28;;;;;;;20.10;13.22;;;;;;;14.71;47.23;100098.42;1776460;80;21145;-76
2021/04/20 01:53:55;;;;;;;15.30;12.53;;;;;;;14.70;47.31;100095.92;1776305;80;21260;-76
2021/04/20 01:56:22;;;;;;;17.62;13.80;;;;;;;14.68;47.30;100090.74;1776481;80;21062;-75
2021/04/20 01:58:49;;;;;;;;;;;;;;;14.68;47.34;100090.74;1749832;80;21078;-75
2021/04/20 02:01:21;;;;;;;16.87;11.93;;;;;;;14.66;47.36;100088.73;1769924;80;20262;-76
2021/04/20 02:03:50;;;;;;;16.87;13.78;;;;;;;14.64;47.40;100081.89;1781668;80;21149;-75
2021/04/20 02:06:19;;;;;;;17.37;13.22;;;;;;;14.60;47.56;100082.78;1784018;80;21197;-76
2021/04/20 02:08:48;;;;;;;16.50;13.38;;;;;;;14.60;47.59;100081.95;1780934;80;21211;-76
2021/04/20 02:11:17;;;;;;;;;;;;;;;14.57;47.63;100077.77;1787006;80;21161;-75
2021/04/20 02:13:44;;;;;;;18.23;13.62;;;;;;;14.57;47.65;100080.46;1784203;80;20308;-74
2021/04/20 02:16:11;;;;;;;;;;;;;;;14.64;47.54;100077.84;1754225;80;21178;-75
2021/04/20 02:18:47;;;;;;;20.90;14.65;;;;;;;14.65;47.50;100083.03;1781721;80;20203;-75
2021/04/20 02:21:15;;;;;;;21.77;15.08;;;;;;;14.64;47.50;100085.41;1785804;80;21596;-76
2021/04/20 02:23:45;;;;;;;23.07;16.42;;;;;;;14.64;47.49;100085.93;1754398;80;21147;-76
2021/04/20 02:26:14;;;;;;;29.02;18.60;;;;;;;14.64;47.50;100083.23;1785789;80;21114;-75
2021/04/20 02:28:42;;;;;;;20.00;14.78;;;;;;;14.64;47.54;100081.89;1782208;80;21159;-74
2021/04/20 02:31:11;;;;;;;20.35;14.65;;;;;;;14.63;47.52;100078.36;1785632;80;21162;-75
2021/04/20 02:33:40;;;;;;;21.55;16.12;;;;;;;14.63;47.52;100079.70;1782225;80;21056;-75
2021/04/20 02:36:08;;;;;;;24.32;17.32;;;;;;;14.62;47.51;100075.32;1757694;80;21647;-74
2021/04/20 02:38:35;;;;;;;26.02;17.15;;;;;;;14.63;47.52;100072.14;1754087;80;21095;-75
2021/04/20 02:41:04;;;;;;;21.17;16.00;;;;;;;14.62;47.50;100073.97;1785894;80;21505;-75
2021/04/20 02:43:32;;;;;;;18.87;15.35;;;;;;;14.64;47.47;100073.28;1782238;80;21099;-75
2021/04/20 02:46:01;;;;;;;21.75;15.80;;;;;;;14.64;47.46;100073.28;1785644;80;21082;-76
2021/04/20 02:48:31;;;;;;;21.55;15.93;;;;;;;14.63;47.42;100074.31;1781965;80;21072;-75
2021/04/20 02:50:58;;;;;;;;;;;;;;;14.64;47.44;100075.15;1734222;80;21062;-76
2021/04/20 02:53:26;;;;;;;20.15;15.13;;;;;;;14.61;47.48;100072.83;1785824;80;20226;-74
2021/04/20 02:55:55;;;;;;;19.77;15.85;;;;;;;14.58;47.57;100064.63;1781142;80;21234;-74
2021/04/20 02:58:26;;;;;;;19.55;14.18;;;;;;;14.56;47.61;100059.94;1756656;80;21181;-74
2021/04/20 03:01:06;;;;;;;16.55;13.50;;;;;;;14.56;47.61;100058.59;1780765;80;21174;-76
2021/04/20 03:03:36;;;;;;;20.30;14.45;;;;;;;14.57;47.65;100061.59;1784317;80;21204;-75
2021/04/20 03:06:04;;;;;;;19.60;13.78;;;;;;;14.60;47.67;100063.08;1779987;80;21749;-74
2021/04/20 03:08:32;;;;;;;20.05;14.78;;;;;;;14.59;47.69;100062.25;1784009;80;21209;-74
2021/04/20 03:11:07;;;;;;;18.32;13.83;;;;;;;14.60;47.67;100063.91;1781523;80;21490;-75
2021/04/20 03:13:34;;;;;;;19.35;14.43;;;;;;;14.62;47.63;100058.31;1785032;80;21217;-75
2021/04/20 03:16:07;;;;;;;21.48;14.63;;;;;;;14.62;47.58;100059.14;1780431;80;21183;-75
2021/04/20 03:18:34;;;;;;;18.57;13.62;;;;;;;14.63;47.57;100057.31;1783897;80;21200;-74
2021/04/20 03:21:12;;;;;;;18.00;14.45;;;;;;;14.61;47.63;100063.39;1780150;80;21534;-76
2021/04/20 03:23:39;;;;;;;25.70;15.83;;;;;;;14.61;47.63;100066.09;1784982;80;21091;-74
2021/04/20 03:26:10;;;;;;;;;;;;;;;14.59;47.67;100064.95;1783825;80;21103;-74
2021/04/20 03:28:37;;;;;;;17.62;12.80;;;;;;;14.56;47.75;100061.28;1778744;80;20293;-74
2021/04/20 03:31:05;;;;;;;22.77;14.53;;;;;;;14.53;47.82;100067.05;1783595;80;21172;-76
2021/04/20 03:33:36;;;;;;;19.77;14.68;;;;;;;14.55;47.88;100066.36;1780422;80;21182;-76
2021/04/20 03:36:11;;;;;;;16.48;13.80;;;;;;;14.56;47.96;100069.37;1785636;80;21169;-77
2021/04/20 03:38:57;;;;;;;19.12;14.10;;;;;;;14.56;48.01;100057.23;1814258;79;21078;-76
2021/04/20 03:41:29;;;;;;;20.65;14.07;;;;;;;14.59;48.02;100056.86;1781893;80;21639;-76
2021/04/20 03:43:58;;;;;;;17.02;13.10;;;;;;;14.61;47.98;100056.14;1773602;80;21161;-75
2021/04/20 03:46:30;;;;;;;20.97;14.53;;;;;;;14.63;48.01;100049.23;1786595;79;21276;-75
2021/04/20 03:49:08;;;;;;;18.40;14.30;;;;;;;14.66;48.08;100053.69;1756295;80;21241;-75
2021/04/20 03:51:36;;;;;;;16.25;12.68;;;;;;;14.69;48.15;100047.09;1776806;79;21210;-75
2021/04/20 03:54:06;;;;;;;;;;;;;;;14.71;48.21;100040.45;1783026;80;21211;-76
2021/04/20 03:56:35;;;;;;;19.27;14.23;;;;;;;14.76;48.20;100041.73;1774282;79;20292;-75
2021/04/20 03:59:05;;;;;;;19.52;14.35;;;;;;;14.79;48.15;100045.40;1764858;80;21196;-74
2021/04/20 04:01:41;;;;;;;20.50;14.85;;;;;;;14.84;47.97;100038.91;1781996;80;21189;-75
2021/04/20 04:04:10;;;;;;;20.75;16.02;;;;;;;14.87;47.77;100047.95;1812436;79;21086;-75
2021/04/20 04:06:38;;;;;;;20.08;15.15;;;;;;;14.92;47.67;100048.20;1789407;79;21721;-75
2021/04/20 04:09:06;;;;;;;20.35;16.60;;;;;;;14.98;47.32;100052.80;1747864;80;21470;-77
2021/04/20 04:11:33;;;;;;;;;;;;;;;14.97;47.04;100052.48;1754978;80;21151;-76
2021/04/20 04:14:01;;;;;;;22.27;15.68;;;;;;;14.95;46.90;100046.47;1780508;80;20262;-74
2021/04/20 04:16:28;;;;;;;23.18;16.32;;;;;;;14.90;46.83;100044.36;1752242;80;21159;-75
2021/04/20 04:18:57;;;;;;;22.95;15.30;;;;;;;14.88;46.83;100046.92;1779273;79;21197;-74
2021/04/20 04:21:33;;;;;;;21.68;14.65;;;;;;;14.84;46.78;100042.95;1809770;79;21180;-74
2021/04/20 04:24:04;;;;;;;18.65;13.78;;;;;;;14.80;46.77;100043.02;1749869;80;21219;-74
2021/04/20 04:26:35;;;;;;;16.40;12.82;;;;;;;14.77;46.79;100043.42;1778474;80;21558;-75
2021/04/20 04:29:04;;;;;;;22.67;15.32;;;;;;;14.80;46.86;100040.32;1771040;79;21137;-76
2021/04/20 04:31:32;;;;;;;19.65;14.95;;;;;;;14.84;46.94;100038.91;1779142;80;21154;-76
2021/04/20 04:34:00;;;;;;;19.55;15.23;;;;;;;14.88;46.90;100022.13;1778950;80;21104;-75
2021/04/20 04:36:27;;;;;;;18.98;13.72;;;;;;;14.92;46.90;100020.72;1721052;82;21198;-76
2021/04/20 04:38:54;;;;;;;18.85;14.10;;;;;;;14.96;46.80;100018.46;1751583;81;21458;-76
2021/04/20 04:41:21;;;;;;;19.90;15.05;;;;;;;14.98;46.69;100019.09;1779645;80;21138;-76
2021/04/20 04:43:49;;;;;;;20.27;15.48;;;;;;;15.01;46.62;100018.70;1759479;80;21105;-77
2021/04/20 04:46:17;;;;;;;21.10;14.25;;;;;;;15.03;46.66;100019.31;1757920;80;21496;-78
2021/04/20 04:48:44;;;;;;;;;;;;;;;15.05;46.66;100024.02;1767526;80;21212;-75
2021/04/20 04:51:11;;;;;;;18.47;13.57;;;;;;;15.07;46.57;100026.51;1755535;80;20658;-75
2021/04/20 04:53:40;;;;;;;20.85;14.83;;;;;;;15.05;46.60;100025.37;1765156;79;21325;-74
2021/04/20 04:56:08;;;;;;;20.10;15.10;;;;;;;15.04;46.66;100025.05;1788579;79;21188;-74
2021/04/20 04:58:36;;;;;;;20.15;15.18;;;;;;;15.06;46.65;100025.67;1799304;79;21166;-75
2021/04/20 05:01:05;;;;;;;17.17;13.22;;;;;;;15.08;46.67;100022.28;1785405;80;21581;-76
2021/04/20 05:03:32;;;;;;;21.30;13.30;;;;;;;15.08;46.59;100011.49;1759664;80;21375;-77
2021/04/20 05:06:00;;;;;;;27.32;14.18;;;;;;;15.10;46.47;100016.68;1758240;80;21197;-75
2021/04/20 05:08:28;;;;;;;25.05;14.65;;;;;;;15.13;46.53;100007.69;1786036;79;22057;-76
2021/04/20 05:11:05;;;;;;;19.35;14.35;;;;;;;15.18;46.48;100004.39;1790979;79;21674;-76
2021/04/20 05:13:32;;;;;;;22.10;13.78;;;;;;;15.24;46.45;100007.63;1756213;80;21222;-75
2021/04/20 05:16:07;;;;;;;20.43;13.85;;;;;;;15.27;46.29;100007.75;1733107;81;21564;-75
2021/04/20 05:18:38;;;;;;;20.17;13.18;;;;;;;15.29;46.18;100001.62;1765300;80;21190;-75
2021/04/20 05:21:06;;;;;;;19.32;14.10;;;;;;;15.32;46.13;99999.89;1764949;79;21268;-75
2021/04/20 05:23:33;;;;;;;19.90;14.85;;;;;;;15.36;46.06;100002.51;1788585;79;21232;-76
2021/04/20 05:26:03;;;;;;;20.90;15.30;;;;;;;15.41;46.07;99997.34;1756183;80;21529;-76
2021/04/20 05:28:31;;;;;;;21.42;13.88;;;;;;;15.47;46.14;99989.77;1761932;80;21174;-75
2021/04/20 05:30:57;;;;;;;;;;;;;;;15.60;46.10;99987.13;1769754;80;21192;-74
2021/04/20 05:33:24;;;;;;;21.30;14.00;;;;;;;15.70;45.93;99983.55;1794920;79;20513;-75
2021/04/20 05:35:51;;;;;;;;;;;;;;;15.82;45.52;99985.68;1784700;79;21625;-74
2021/04/20 05:38:20;;;;;;;17.35;13.03;;;;;;;15.89;45.47;99984.64;1690206;83;20313;-77
2021/04/20 05:40:47;;;;;;;;;;;;;;;15.98;45.68;99986.63;1691597;83;21510;-75
2021/04/20 05:43:16;;;;;;;;;;;;;;;16.12;45.31;99991.53;1723419;82;20292;-77
2021/04/20 05:45:43;;;;;;;16.27;12.30;;;;;;;16.25;45.15;99984.80;1681436;84;20371;-77
2021/04/20 05:48:10;;;;;;;16.42;12.80;;;;;;;16.39;45.00;99986.98;1697898;83;21495;-76
2021/04/20 05:50:39;;;;;;;16.05;12.85;;;;;;;16.47;44.84;99982.21;1761385;80;21157;-76
2021/04/20 05:53:09;;;;;;;;;;;;;;;16.59;44.47;99983.78;1761344;80;21195;-75
2021/04/20 05:55:36;;;;;;;18.65;13.80;;;;;;;16.70;44.28;99974.19;1756916;80;20715;-76
2021/04/20 05:58:03;;;;;;;20.57;14.40;;;;;;;16.77;44.04;99976.94;1749749;80;21601;-75
2021/04/20 06:00:30;;;;;;;17.20;13.85;;;;;;;16.87;43.99;99974.62;1749060;80;21140;-76
2021/04/20 06:02:58;;;;;;;22.22;12.85;;;;;;;16.95;43.57;99967.64;1760124;80;21149;-77
2021/04/20 06:05:26;;;;;;;16.60;12.98;;;;;;;17.01;43.20;99960.55;1752904;80;21169;-75
2021/04/20 06:07:56;;;;;;;18.75;13.85;;;;;;;17.07;42.93;99955.10;1762664;80;21137;-75
2021/04/20 06:10:25;;;;;;;14.85;11.97;;;;;;;17.14;42.87;99949.16;1746166;80;21982;-78
2021/04/20 06:12:53;;;;;;;13.48;11.90;;;;;;;17.24;42.68;99946.00;1748614;80;21170;-77
2021/04/20 06:15:21;;;;;;;;;;;;;;;17.35;42.81;99936.36;1752874;80;21125;-76
2021/04/20 06:17:51;;;;;;;15.83;12.40;;;;;;;17.49;42.49;99942.05;1745339;80;20603;-75
2021/04/20 06:20:22;;;;;;;14.90;11.97;;;;;;;17.64;42.16;99943.94;1748033;80;21132;-76
2021/04/20 06:22:50;;;;;;;13.60;11.70;;;;;;;17.82;41.96;99932.94;1744729;80;21588;-76
2021/04/20 06:25:18;;;;;;;24.18;17.67;;;;;;;18.03;41.70;99933.08;1753836;80;21223;-77
2021/04/20 06:27:46;;;;;;;26.42;16.90;;;;;;;18.23;41.37;99935.95;1749912;80;21597;-77
2021/04/20 06:30:15;;;;;;;18.85;13.35;;;;;;;18.40;40.95;99934.89;1751891;80;21935;-79
2021/04/20 06:32:43;;;;;;;19.48;15.15;;;;;;;18.56;40.77;99938.08;1750624;80;21123;-77
2021/04/20 06:35:19;;;;;;;14.55;11.73;;;;;;;18.66;40.40;99939.74;1727189;80;21631;-77
2021/04/20 06:37:49;;;;;;;13.60;11.68;;;;;;;18.71;40.10;99944.86;1745243;80;21129;-77
2021/04/20 06:40:23;;;;;;;12.07;10.72;;;;;;;18.71;39.85;99935.86;1748966;80;21145;-76
2021/04/20 06:43:02;;;;;;;13.48;10.58;;;;;;;18.65;39.79;99929.42;1742206;80;21128;-76
2021/04/20 06:45:49;;;;;;;12.83;10.30;;;;;;;18.60;39.71;99927.91;1740416;80;21105;-76
2021/04/20 06:48:48;;;;;;;13.32;10.30;;;;;;;18.52;39.74;99928.19;1744123;80;21109;-77
2021/04/20 06:51:25;;;;;;;13.50;10.80;;;;;;;18.44;40.05;99924.41;1743243;82;21160;-76
2021/04/20 06:54:21;;;;;;;;;;;;;;;18.43;40.23;99920.04;1748265;80;21156;-78
2021/04/20 06:56:51;;;;;;;17.45;11.15;;;;;;;18.43;40.16;99922.22;1732316;80;20256;-77
2021/04/20 06:59:45;;;;;;;15.23;11.15;;;;;;;18.45;40.14;99921.48;1723377;81;21097;-77
2021/04/20 07:02:39;;;;;;;12.60;11.03;;;;;;;18.48;40.13;99916.13;1743270;80;21639;-76
2021/04/20 07:05:09;;;;;;;16.52;11.75;;;;;;;18.48;40.08;99923.73;1711021;80;21141;-78
2021/04/20 07:08:10;;;;;;;12.15;10.25;;;;;;;18.51;40.20;99921.12;1713619;82;21182;-75
2021/04/20 07:10:39;;;;;;;15.35;10.28;;;;;;;18.54;40.05;99919.33;1711011;82;21160;-77
2021/04/20 07:13:10;;;;;;;12.98;10.30;;;;;;;18.61;39.95;99925.50;1711269;83;21155;-75
2021/04/20 07:15:41;;;;;;;13.75;9.45;;;;;;;18.80;39.98;99922.84;1685961;83;21167;-75
2021/04/20 07:18:31;;;;;;;12.73;10.38;;;;;;;19.02;39.78;99917.27;1684402;83;21678;-75
2021/04/20 07:21:21;;;;;;;10.72;9.15;;;;;;;19.31;39.45;99912.14;1696977;82;21157;-76
2021/04/20 07:24:10;;;;;;;10.30;8.38;;;;;;;19.65;38.94;99910.64;1686467;82;21123;-77
2021/04/20 07:27:06;;;;;;;9.88;8.88;;;;;;;20.00;38.30;99906.67;1684969;83;21205;-75
2021/04/20 07:29:51;;;;;;;8.15;7.35;;;;;;;20.35;37.91;99914.03;1746060;80;21096;-78
2021/04/20 07:32:35;;;;;;;7.67;6.87;;;;;;;20.70;36.97;99905.38;1745004;82;21954;-75
2021/04/20 07:35:14;;;;;;;9.40;7.20;;;;;;;21.00;36.27;99898.95;1687846;82;21145;-77
2021/04/20 07:37:58;;;;;;;8.25;6.37;;;;;;;21.28;35.87;99889.45;1713336;82;21120;-77
2021/04/20 07:41:10;;;;;;;11.93;6.65;;;;;;;21.50;35.21;99893.72;1701690;84;21769;-78
2021/04/20 07:44:23;;;;;;;10.05;6.83;;;;;;;21.63;34.69;99889.88;1702958;82;21827;-77
2021/04/20 07:46:57;;;;;;;9.13;6.85;;;;;;;21.67;34.27;99892.41;1696344;82;21219;-81
2021/04/20 07:49:54;;;;;;;9.40;7.00;;;;;;;21.63;34.12;99878.98;1700818;82;21734;-78
2021/04/20 07:52:37;;;;;;;7.75;6.97;;;;;;;21.59;34.07;99881.89;1695474;82;21152;-80
2021/04/20 07:55:19;;;;;;;8.90;7.35;;;;;;;21.49;34.06;99883.90;1679981;82;21624;-76
2021/04/20 07:57:57;;;;;;;11.85;9.43;;;;;;;21.37;34.01;99889.09;1702916;82;21149;-76
2021/04/20 08:00:35;;;;;;;9.20;7.40;;;;;;;21.21;33.81;99887.42;1694142;82;21176;-76
2021/04/20 08:03:24;;;;;;;9.88;7.33;;;;;;;21.07;34.11;99880.56;1671671;82;21153;-78
2021/04/20 08:06:02;;;;;;;7.87;6.90;;;;;;;20.95;34.25;99875.70;1704586;82;21136;-77
2021/04/20 08:08:44;;;;;;;10.18;7.58;;;;;;;20.85;34.57;99886.36;1696697;82;21999;-77
2021/04/20 08:11:28;;;;;;;8.30;7.33;;;;;;;20.83;34.98;99874.89;1679427;84;21630;-77
2021/04/20 08:14:25;;;;;;;13.55;6.72;;;;;;;20.83;34.68;99871.63;1704504;82;21208;-78
2021/04/20 08:16:56;;;;;;;9.65;7.03;;;;;;;20.87;34.49;99861.92;1717937;82;21717;-77
2021/04/20 08:19:49;;;;;;;6.92;6.33;;;;;;;20.94;34.45;99859.91;1686028;82;21160;-78
2021/04/20 08:22:18;;;;;;;7.40;6.45;;;;;;;21.00;34.28;99856.75;1676031;82;21698;-76
2021/04/20 08:25:08;;;;;;;6.28;5.67;;;;;;;21.08;34.49;99855.55;1656289;82;21686;-77
2021/04/20 08:27:50;;;;;;;6.50;5.85;;;;;;;21.17;34.22;99846.75;1707137;82;21155;-75
2021/04/20 08:30:30;;;;;;;6.87;5.85;;;;;;;21.30;33.81;99846.97;1696477;82;21148;-78
2021/04/20 08:32:58;;;;;;;9.68;6.55;;;;;;;21.39;33.56;99846.08;1673382;82;21627;-74
2021/04/20 08:35:27;;;;;;;8.68;5.37;;;;;;;21.40;33.55;99846.39;1678350;82;21149;-76
2021/04/20 08:38:16;;;;;;;9.33;5.35;;;;;;;21.37;33.17;99842.25;1696932;82;21165;-75
2021/04/20 08:41:07;;;;;;;9.50;5.58;;;;;;;21.31;33.04;99833.70;1699363;82;21662;-75
2021/04/20 08:44:02;;;;;;;8.33;6.25;;;;;;;21.24;32.91;99832.97;1699819;82;22035;-77
2021/04/20 08:46:56;;;;;;;7.55;5.72;;;;;;;21.19;32.85;99830.16;1705552;82;21153;-75
2021/04/20 08:49:44;;;;;;;9.88;5.55;;;;;;;21.09;33.13;99825.87;1701706;82;21140;-75
2021/04/20 08:53:01;;;;;;;5.80;5.20;;;;;;;21.01;32.85;99829.81;1694888;82;21161;-75
2021/04/20 08:55:53;;;;;;;5.05;4.08;;;;;;;20.96;32.89;99822.91;1696508;82;21148;-76
2021/04/20 08:58:51;;;;;;;6.62;5.00;;;;;;;21.02;33.12;99812.39;1701973;82;21180;-77
2021/04/20 09:01:26;;;;;;;5.17;4.67;;;;;;;21.10;32.93;99814.73;1707411;81;21993;-77
2021/04/20 09:04:22;;;;;;;5.83;4.53;;;;;;;21.15;32.63;99802.58;1713905;82;21160;-76
2021/04/20 09:06:50;;;;;;;5.12;4.30;;;;;;;21.18;32.34;99804.82;1679255;83;21134;-75
2021/04/20 09:09:24;;;;;;;4.85;3.62;;;;;;;21.17;32.09;99805.08;1724880;82;21569;-78
2021/04/20 09:12:09;;;;;;;6.40;4.10;;;;;;;21.15;31.99;99803.94;1740046;80;21692;-76
2021/04/20 09:14:37;;;;;;;4.40;4.00;;;;;;;21.15;31.79;99794.94;1712001;80;21138;-77
2021/04/20 09:17:17;;;;;;;4.90;4.40;;;;;;;21.13;31.89;99792.48;1708232;82;21160;-75
2021/04/20 09:20:01;;;;;;;4.22;3.83;;;;;;;21.13;31.82;99791.11;1702919;82;21164;-77
2021/04/20 09:22:59;;;;;;;3.72;3.42;;;;;;;21.08;31.74;99784.75;1687593;82;21306;-77
2021/04/20 09:25:35;;;;;;;4.50;3.95;;;;;;;21.02;31.41;99779.72;1705555;82;21159;-76
2021/04/20 09:28:16;;;;;;;3.80;3.50;;;;;;;20.97;31.58;99775.55;1672183;82;21687;-76
2021/04/20 09:31:21;;;;;;;3.77;3.40;;;;;;;20.99;31.43;99774.24;1668141;84;21661;-77
2021/04/20 09:37:42;;;;;;;3.60;3.30;;;;;;;21.07;31.56;99755.84;1816618;76;22746;-76
2021/04/20 09:40:13;;;;;;;9.30;4.28;;;;;;;21.05;31.71;99762.91;1760796;78;21220;-76
2021/04/20 09:42:42;;;;;;;5.37;3.72;;;;;;;21.08;31.57;99754.80;1798172;77;21013;-77
2021/04/20 09:45:22;;;;;;;5.78;3.77;;;;;;;21.07;31.84;99749.86;1795842;77;21144;-77
2021/04/20 09:48:15;;;;;;;4.37;3.95;;;;;;;21.02;32.07;99738.88;1801141;77;21127;-78
2021/04/20 09:51:20;;;;;;;4.28;3.90;;;;;;;21.02;32.27;99738.34;1758655;77;21770;-79
2021/04/20 09:54:19;;;;;;;4.17;3.77;;;;;;;21.04;31.52;99731.31;1800597;77;21117;-77
2021/04/20 09:56:53;;;;;;;4.92;4.42;;;;;;;21.00;31.82;99727.42;1799709;77;21131;-76
2021/04/20 09:59:44;;;;;;;6.62;4.17;;;;;;;20.95;31.64;99729.52;1798772;77;21608;-76
2021/04/20 10:02:46;;;;;;;5.80;4.55;;;;;;;20.86;31.92;99725.53;1796332;77;21664;-76
2021/04/20 10:06:05;;;;;;;6.15;4.20;;;;;;;20.76;32.14;99726.17;1808095;77;21122;-77
2021/04/20 10:08:54;;;;;;;6.97;4.78;;;;;;;20.70;32.46;99729.02;1807653;77;21100;-77
2021/04/20 10:11:43;;;;;;;5.30;4.80;;;;;;;20.64;32.61;99722.66;1810869;77;21672;-76
2021/04/20 10:14:43;;;;;;;5.92;4.72;;;;;;;20.61;32.94;99725.84;1809863;77;21128;-76
2021/04/20 10:17:16;;;;;;;5.65;4.33;;;;;;;20.60;32.66;99720.66;1800191;77;21148;-76
2021/04/20 10:20:04;;;;;;;5.87;3.90;;;;;;;20.56;32.71;99712.14;1801258;77;21100;-78
2021/04/20 10:22:49;;;;;;;6.83;4.12;;;;;;;20.47;32.87;99714.92;1804156;77;21139;-75
2021/04/20 10:25:45;;;;;;;6.67;5.00;;;;;;;20.47;33.04;99711.70;1796918;77;21013;-76
2021/04/20 10:28:33;;;;;;;7.40;6.25;;;;;;;20.45;33.06;99714.35;1800079;77;21147;-76
2021/04/20 10:31:15;;;;;;;4.92;4.42;;;;;;;20.44;33.17;99720.87;1796485;77;21128;-76
2021/04/20 10:33:48;;;;;;;5.20;4.67;;;;;;;20.42;33.27;99709.38;1804313;77;21104;-75
2021/04/20 10:36:26;;;;;;;4.55;4.15;;;;;;;20.40;33.47;99706.91;1797412;77;21127;-77
2021/04/20 10:38:56;;;;;;;4.78;4.25;;;;;;;20.41;33.37;99705.84;1796147;77;20969;-77
2021/04/20 10:41:28;;;;;;;4.58;4.17;;;;;;;20.41;33.03;99708.56;1806480;77;21168;-79
2021/04/20 10:43:56;;;;;;;5.85;3.87;;;;;;;20.41;32.90;99710.45;1803297;77;21112;-76
2021/04/20 10:46:25;;;;;;;4.25;3.85;;;;;;;20.40;32.77;99712.36;1795799;78;21128;-76
2021/04/20 10:48:54;;;;;;;6.20;4.00;;;;;;;20.42;32.70;99710.74;1793931;77;21092;-76
2021/04/20 10:51:34;;;;;;;4.08;3.67;;;;;;;20.39;32.02;99707.13;1799121;77;21140;-76
2021/04/20 10:54:03;;;;;;;5.95;3.42;;;;;;;20.31;32.32;99708.89;1795395;77;21674;-76
2021/04/20 10:56:30;;;;;;;6.67;4.47;;;;;;;20.30;32.73;99708.58;1804003;77;21136;-75
2021/04/20 10:59:03;;;;;;;7.12;4.05;;;;;;;20.31;32.88;99700.73;1801566;77;21591;-75
2021/04/20 11:01:32;;;;;;;5.37;4.30;;;;;;;20.34;33.02;99708.39;1800787;78;21146;-75
2021/04/20 11:04:02;;;;;;;5.65;3.92;;;;;;;20.34;32.97;99699.70;1798040;77;21515;-75
2021/04/20 11:07:10;;;;;;;4.55;4.15;;;;;;;20.34;32.97;99698.88;1789813;78;21538;-75
2021/04/20 11:09:37;;;;;;;4.30;3.90;;;;;;;20.34;33.13;99692.08;1800363;77;21134;-75
2021/04/20 11:12:19;;;;;;;6.92;3.52;;;;;;;20.38;32.85;99693.25;1798026;77;21120;-77
2021/04/20 11:14:50;;;;;;;4.83;4.08;;;;;;;20.36;32.55;99696.76;1765545;78;21149;-78
2021/04/20 11:17:57;;;;;;;4.22;3.90;;;;;;;20.36;32.63;99691.31;1797426;77;21148;-76
2021/04/20 11:20:41;;;;;;;4.80;3.98;;;;;;;20.34;32.65;99690.17;1798483;77;21447;-77
2021/04/20 11:23:22;;;;;;;5.90;4.60;;;;;;;20.34;32.86;99687.99;1765393;79;21146;-76
2021/04/20 11:26:00;;;;;;;8.35;5.17;;;;;;;20.32;33.13;99681.98;1801556;77;21568;-76
2021/04/20 11:28:52;;;;;;;7.67;6.50;;;;;;;20.28;33.50;99685.71;1799727;77;21128;-76
2021/04/20 11:31:27;;;;;;;9.68;6.90;;;;;;;20.22;34.28;99682.06;1817983;77;21032;-76
2021/04/20 11:34:20;;;;;;;8.23;7.03;;;;;;;20.16;34.77;99680.29;1795078;77;21662;-76
2021/04/20 11:36:56;;;;;;;7.85;6.90;;;;;;;20.10;34.74;99679.90;1792017;77;21659;-77
2021/04/20 11:39:38;;;;;;;13.00;7.10;;;;;;;20.01;35.02;99670.46;1787230;78;21089;-77
2021/04/20 11:42:27;;;;;;;11.35;7.65;;;;;;;19.98;35.17;99664.13;1830238;77;22693;-75
2021/04/20 11:45:26;;;;;;;8.08;7.25;;;;;;;19.89;35.17;99673.72;1800496;78;21118;-76
2021/04/20 11:48:19;;;;;;;8.53;7.58;;;;;;;19.83;35.36;99659.20;1837638;77;21157;-77
2021/04/20 11:50:58;;;;;;;8.43;7.62;;;;;;;19.81;35.76;99665.95;1788665;77;21136;-75
2021/04/20 11:53:27;;;;;;;8.63;7.60;;;;;;;19.76;35.71;99655.80;1810149;78;21090;-75
2021/04/20 11:55:59;;;;;;;9.88;7.22;;;;;;;19.74;35.99;99654.66;1813187;78;20987;-75
2021/04/20 11:58:39;;;;;;;10.78;7.60;;;;;;;19.76;36.18;99640.85;1807010;78;21873;-75
2021/04/20 12:01:22;;;;;;;8.23;6.45;;;;;;;19.76;36.36;99648.47;1780780;78;21144;-75
2021/04/20 12:04:04;;;;;;;7.92;7.10;;;;;;;19.81;36.43;99643.67;1783037;78;21140;-76